Time;durP1;ratioP1;P1;durP2;ratioP2;P2;SDS_P1;SDS_P2;PMS_P1;PMS_P2;Temp;Humidity;BMP_temperature;BMP_pressure;BME280_temperature;BME280_humidity;BME280_pressure;Samples;Min_cycle;Max_cycle;Signal;HPM_P1;HPM_P2
2021/11/08 00:03:00;;;;;;;;;;;5.00;99.90;;;;;;8360962;28;19913;-64
2021/11/08 00:07:02;;;;;;;;;;;4.70;99.90;;;;;;8360931;28;19904;-64
2021/11/08 00:11:02;;;;;;;;;;;4.30;99.90;;;;;;8342891;28;19904;-64
2021/11/08 00:15:04;;;;;;;;;;;4.40;99.90;;;;;;8360702;28;19963;-64
2021/11/08 00:23:26;;;;;;;;;;;4.40;99.90;;;;;;8360647;28;19959;-64
2021/11/08 00:27:27;;;;;;;;;;;4.30;99.90;;;;;;8360446;28;19905;-64
2021/11/08 00:31:28;;;;;;;;;;;4.30;99.90;;;;;;8360365;28;19912;-64
2021/11/08 00:35:28;;;;;;;;;;;4.50;99.90;;;;;;8342455;28;19905;-64
2021/11/08 00:39:29;;;;;;;;;;;4.50;99.90;;;;;;8360239;28;19996;-64
2021/11/08 00:43:30;;;;;;;;;;;4.30;99.90;;;;;;8360228;28;19905;-64
2021/11/08 00:47:31;;;;;;;;;;;4.30;99.90;;;;;;8360209;28;19912;-64
2021/11/08 00:51:36;;;;;;;;;;;4.40;99.90;;;;;;8358425;28;19904;-64
2021/11/08 00:55:38;;;;;;;;;;;4.70;99.90;;;;;;8366094;28;19913;-64
2021/11/08 00:59:39;;;;;;;;;;;4.50;99.90;;;;;;8348496;28;20345;-64
2021/11/08 01:03:43;;;;;;;;;;;4.60;99.90;;;;;;8348622;28;20002;-64
2021/11/08 01:07:44;;;;;;;;;;;4.60;99.90;;;;;;8366056;28;19915;-64
2021/11/08 01:11:45;;;;;;;;;;;4.70;99.90;;;;;;8366101;28;20329;-64
2021/11/08 01:15:46;;;;;;;;;;;4.70;99.90;;;;;;8366073;28;19909;-64
2021/11/08 01:19:47;;;;;;;;;;;4.80;99.90;;;;;;8365945;28;19912;-64
2021/11/08 01:23:48;;;;;;;;;;;4.80;99.90;;;;;;8364242;28;19911;-64
2021/11/08 01:27:53;;;;;;;;;;;4.80;99.90;;;;;;8365735;28;19958;-64
2021/11/08 01:31:54;;;;;;;;;;;4.90;99.90;;;;;;8365466;28;19940;-64
2021/11/08 01:40:05;;;;;;;;;;;4.80;99.90;;;;;;8365464;28;19908;-64
2021/11/08 01:44:05;;;;;;;;;;;4.90;99.90;;;;;;8365241;28;19908;-64
2021/11/08 01:48:06;;;;;;;;;;;4.90;99.90;;;;;;8347317;28;19912;-64
2021/11/08 01:52:09;;;;;;;;;;;5.10;99.90;;;;;;8364380;28;19912;-64
2021/11/08 01:56:09;;;;;;;;;;;5.00;99.90;;;;;;8363195;28;20392;-64
2021/11/08 02:00:11;;;;;;;;;;;5.10;99.90;;;;;;8364350;28;19948;-64
2021/11/08 02:04:12;;;;;;;;;;;5.00;99.90;;;;;;8346152;28;19919;-64
2021/11/08 02:08:12;;;;;;;;;;;4.90;99.90;;;;;;8346668;28;19905;-64
2021/11/08 02:12:13;;;;;;;;;;;5.20;99.90;;;;;;8364302;28;19911;-64
2021/11/08 02:16:15;;;;;;;;;;;5.10;99.90;;;;;;8364686;28;20012;-64
2021/11/08 02:20:27;;;;;;;;;;;5.20;99.90;;;;;;8364104;28;20328;-64
2021/11/08 02:24:28;;;;;;;;;;;5.00;99.90;;;;;;8361954;28;19905;-64
2021/11/08 02:28:29;;;;;;;;;;;4.90;99.90;;;;;;8348350;28;19936;-64
2021/11/08 02:32:29;;;;;;;;;;;4.90;99.90;;;;;;8363846;28;19905;-64
2021/11/08 02:36:30;;;;;;;;;;;4.90;99.90;;;;;;8363600;28;19954;-64
2021/11/08 02:40:31;;;;;;;;;;;4.90;99.90;;;;;;8345598;28;19915;-64
2021/11/08 02:44:32;;;;;;;;;;;4.90;99.90;;;;;;8363433;28;19912;-64
2021/11/08 02:48:33;;;;;;;;;;;5.00;99.90;;;;;;8345054;28;19962;-64
2021/11/08 02:52:33;;;;;;;;;;;4.90;99.90;;;;;;8363214;28;19967;-64
2021/11/08 02:56:34;;;;;;;;;;;5.00;99.90;;;;;;8361229;28;19974;-64
2021/11/08 03:00:36;;;;;;;;;;;5.10;99.90;;;;;;8345109;28;19913;-64
2021/11/08 03:04:40;;;;;;;;;;;5.00;99.90;;;;;;8362680;28;19916;-64
2021/11/08 03:08:43;;;;;;;;;;;5.10;99.90;;;;;;8362397;28;20357;-64
2021/11/08 03:12:45;;;;;;;;;;;5.00;99.90;;;;;;8362632;28;19999;-64
2021/11/08 03:16:48;;;;;;;;;;;5.10;99.90;;;;;;8343431;28;19909;-64
2021/11/08 03:20:49;;;;;;;;;;;5.00;99.90;;;;;;8362141;28;19904;-64
2021/11/08 03:24:54;;;;;;;;;;;5.00;99.90;;;;;;8362123;28;19940;-64
2021/11/08 03:28:55;;;;;;;;;;;5.00;99.90;;;;;;8357352;28;19913;-64
2021/11/08 03:32:56;;;;;;;;;;;5.10;99.90;;;;;;8344275;28;19905;-64
2021/11/08 03:36:57;;;;;;;;;;;5.30;99.90;;;;;;8328805;28;19909;-64
2021/11/08 03:40:57;;;;;;;;;;;5.30;99.90;;;;;;8328652;28;19948;-64
2021/11/08 03:44:58;;;;;;;;;;;5.10;99.90;;;;;;8328572;28;19912;-64
2021/11/08 03:48:58;;;;;;;;;;;4.90;99.90;;;;;;8328407;28;20297;-64
2021/11/08 03:52:59;;;;;;;;;;;4.80;99.90;;;;;;8328449;28;19905;-64
2021/11/08 03:56:59;;;;;;;;;;;4.60;99.90;;;;;;8333559;28;19909;-64
2021/11/08 04:01:01;;;;;;;;;;;4.60;99.90;;;;;;8359176;28;19912;-64
2021/11/08 04:05:02;;;;;;;;;;;4.70;99.90;;;;;;8360920;28;19920;-64
2021/11/08 04:09:04;;;;;;;;;;;5.00;99.90;;;;;;8360943;28;20414;-64
2021/11/08 04:13:05;;;;;;;;;;;4.80;99.90;;;;;;8360885;28;20476;-64
2021/11/08 04:17:06;;;;;;;;;;;4.60;99.90;;;;;;8360373;28;19909;-64
2021/11/08 04:21:06;;;;;;;;;;;4.60;99.90;;;;;;8342755;28;20416;-64
2021/11/08 04:25:07;;;;;;;;;;;4.70;99.90;;;;;;8360550;28;19912;-64
2021/11/08 04:29:08;;;;;;;;;;;4.80;99.90;;;;;;8359982;28;19905;-64
2021/11/08 04:33:36;;;;;;;;;;;4.80;99.90;;;;;;8340464;28;20003;-64
2021/11/08 04:41:47;;;;;;;;;;;4.60;99.90;;;;;;8341535;28;19909;-64
2021/11/08 04:50:26;;;;;;;;;;;4.40;99.90;;;;;;8359367;28;19912;-64
2021/11/08 05:24:36;;;;;;;;;;;3.30;99.90;;;;;;8358772;28;19991;-64
2021/11/08 05:29:55;;;;;;;;;;;3.20;99.90;;;;;;8341572;28;20004;-64
2021/11/08 05:33:06;;;;;;;;;;;3.00;99.90;;;;;;8359513;28;20395;-64
2021/11/08 05:37:08;;;;;;;;;;;3.20;99.90;;;;;;8357752;28;19909;-64
2021/11/08 05:41:09;;;;;;;;;;;2.90;99.90;;;;;;8364122;28;19908;-64
2021/11/08 05:45:11;;;;;;;;;;;2.90;99.90;;;;;;8365304;28;20331;-64
2021/11/08 05:49:11;;;;;;;;;;;3.20;99.90;;;;;;8364995;28;20391;-64
2021/11/08 05:53:14;;;;;;;;;;;3.20;99.90;;;;;;8364004;28;19909;-64
2021/11/08 06:14:25;;;;;;;;;;;3.00;99.90;;;;;;8364890;28;19912;-64
2021/11/08 06:49:20;;;;;;;;;;;3.30;99.90;;;;;;8360058;28;20046;-62
2021/11/08 06:53:21;;;;;;;;;;;3.10;99.90;;;;;;8361751;28;20388;-62
2021/11/08 06:57:24;;;;;;;;;;;3.20;99.90;;;;;;8361761;28;19924;-62
2021/11/08 07:01:28;;;;;;;;;;;3.40;99.90;;;;;;8359793;28;20063;-62
2021/11/08 07:05:28;;;;;;;;;;;3.50;99.90;;;;;;8359665;28;19913;-62
2021/11/08 07:09:29;;;;;;;;;;;3.70;99.90;;;;;;8360105;28;20394;-62
2021/11/08 07:13:29;;;;;;;;;;;3.70;99.90;;;;;;8359826;28;20656;-62
2021/11/08 07:17:30;;;;;;;;;;;3.90;99.90;;;;;;8359090;28;19919;-62
2021/11/08 07:21:30;;;;;;;;;;;4.20;99.90;;;;;;8360806;28;19962;-62
2021/11/08 07:25:31;;;;;;;;;;;4.10;99.90;;;;;;8362105;28;19951;-62
2021/11/08 07:29:36;;;;;;;;;;;4.20;99.90;;;;;;8343259;28;20475;-62
2021/11/08 07:33:37;;;;;;;;;;;4.00;99.90;;;;;;8360172;28;19917;-62
2021/11/08 07:37:38;;;;;;;;;;;4.20;99.90;;;;;;8358717;28;19921;-62
2021/11/08 07:41:39;;;;;;;;;;;4.20;99.90;;;;;;8360187;28;19931;-62
2021/11/08 07:45:40;;;;;;;;;;;4.10;99.90;;;;;;8358344;28;19975;-62
2021/11/08 07:49:40;;;;;;;;;;;4.10;99.90;;;;;;8359913;28;19920;-62
2021/11/08 07:53:41;;;;;;;;;;;4.10;99.90;;;;;;8359545;28;20045;-62
2021/11/08 07:57:41;;;;;;;;;;;4.30;99.90;;;;;;8359406;28;20352;-61
2021/11/08 08:01:42;;;;;;;;;;;4.30;99.90;;;;;;8359277;28;20292;-62
2021/11/08 08:05:42;;;;;;;;;;;4.50;99.90;;;;;;8360305;28;19908;-62
2021/11/08 08:09:43;;;;;;;;;;;4.70;99.90;;;;;;8340944;28;19936;-60
2021/11/08 08:13:43;;;;;;;;;;;4.90;99.90;;;;;;8359024;28;19940;-62
2021/11/08 08:17:44;;;;;;;;;;;5.10;99.90;;;;;;8355210;28;19927;-62
2021/11/08 08:21:44;;;;;;;;;;;5.40;99.90;;;;;;8359017;28;20386;-62
2021/11/08 08:25:45;;;;;;;;;;;5.50;99.90;;;;;;8358114;28;19909;-62
2021/11/08 08:29:46;;;;;;;;;;;5.80;99.90;;;;;;8357652;28;20000;-61
2021/11/08 08:33:46;;;;;;;;;;;5.90;99.90;;;;;;8352595;28;19999;-62
2021/11/08 08:37:47;;;;;;;;;;;6.00;99.90;;;;;;8340812;28;20007;-62
2021/11/08 08:41:47;;;;;;;;;;;6.10;99.90;;;;;;8359498;28;20459;-63
2021/11/08 08:45:48;;;;;;;;;;;6.30;99.90;;;;;;8359393;28;19955;-62
2021/11/08 08:49:49;;;;;;;;;;;6.40;99.90;;;;;;8354070;28;19909;-63
2021/11/08 08:53:49;;;;;;;;;;;6.60;99.90;;;;;;8359691;28;19915;-63
2021/11/08 08:57:50;;;;;;;;;;;6.80;99.90;;;;;;8357898;28;19912;-63
2021/11/08 09:01:53;;;;;;;;;;;7.00;99.90;;;;;;8358563;28;20402;-63
2021/11/08 09:05:53;;;;;;;;;;;7.30;99.90;;;;;;8359801;28;19913;-63
2021/11/08 09:09:54;;;;;;;;;;;7.60;99.90;;;;;;8359464;28;19999;-63
2021/11/08 09:13:54;;;;;;;;;;;7.90;99.90;;;;;;8360566;28;19913;-63
2021/11/08 09:17:56;;;;;;;;;;;8.00;99.90;;;;;;8364309;28;19963;-63
2021/11/08 09:21:56;;;;;;;;;;;8.10;99.90;;;;;;8363632;28;20419;-63
2021/11/08 09:25:57;;;;;;;;;;;8.40;99.90;;;;;;8364467;28;19916;-63
2021/11/08 09:29:57;;;;;;;;;;;8.60;99.90;;;;;;8363992;28;20434;-63
2021/11/08 09:34:03;;;;;;;;;;;8.80;99.90;;;;;;8364878;28;19956;-63
2021/11/08 09:38:06;;;;;;;;;;;8.70;99.90;;;;;;8360005;28;19921;-63
2021/11/08 09:42:08;;;;;;;;;;;8.50;99.90;;;;;;8357476;28;20073;-63
2021/11/08 09:46:08;;;;;;;;;;;8.40;99.90;;;;;;8364393;28;19908;-62
2021/11/08 09:50:10;;;;;;;;;;;8.60;99.90;;;;;;8364525;28;19912;-63
2021/11/08 09:54:11;;;;;;;;;;;9.00;99.90;;;;;;8344269;28;19908;-63
2021/11/08 09:58:12;;;;;;;;;;;9.40;99.90;;;;;;8363243;28;19913;-63
2021/11/08 10:02:13;;;;;;;;;;;9.70;99.90;;;;;;8363280;28;20300;-63
2021/11/08 10:06:14;;;;;;;;;;;10.50;99.90;;;;;;8363551;28;19916;-63
2021/11/08 10:10:14;;;;;;;;;;;11.20;99.90;;;;;;8363493;28;20295;-63
2021/11/08 10:14:15;;;;;;;;;;;11.60;99.90;;;;;;8362664;28;20035;-63
2021/11/08 10:18:17;;;;;;;;;;;11.30;99.90;;;;;;8361486;28;19916;-63
2021/11/08 10:22:19;;;;;;;;;;;11.00;99.90;;;;;;8361727;28;19959;-62
2021/11/08 10:26:21;;;;;;;;;;;11.00;99.90;;;;;;8360732;28;19909;-64
2021/11/08 10:30:30;;;;;;;;;;;12.30;99.90;;;;;;8350592;28;19927;-63
2021/11/08 10:34:31;;;;;;;;;;;14.20;99.90;;;;;;8360761;28;19919;-64
2021/11/08 10:38:32;;;;;;;;;;;18.10;99.90;;;;;;8362162;28;19908;-63
2021/11/08 10:42:34;;;;;;;;;;;20.30;96.40;;;;;;8362367;28;19909;-64
2021/11/08 10:46:37;;;;;;;;;;;22.90;78.40;;;;;;8361862;28;19920;-63
2021/11/08 10:50:39;;;;;;;;;;;23.60;69.30;;;;;;8361031;28;20356;-63
2021/11/08 10:54:43;;;;;;;;;;;24.40;64.80;;;;;;8344031;28;19909;-64
2021/11/08 10:58:44;;;;;;;;;;;25.20;56.90;;;;;;8342289;28;19910;-64
2021/11/08 11:02:44;;;;;;;;;;;24.80;57.20;;;;;;8359907;28;20288;-64
2021/11/08 11:06:47;;;;;;;;;;;25.50;53.00;;;;;;8337735;28;19999;-63
2021/11/08 11:10:56;;;;;;;;;;;26.00;52.40;;;;;;8341964;28;20003;-64
2021/11/08 11:15:03;;;;;;;;;;;23.90;54.80;;;;;;8360586;28;19908;-64
2021/11/08 11:19:08;;;;;;;;;;;20.80;59.90;;;;;;8359357;28;20299;-63
2021/11/08 11:23:15;;;;;;;;;;;18.00;69.80;;;;;;8350747;28;19962;-63
2021/11/08 11:27:37;;;;;;;;;;;18.60;68.30;;;;;;8361012;28;19942;-64
2021/11/08 11:31:38;;;;;;;;;;;21.40;63.30;;;;;;8357001;28;19912;-63
2021/11/08 11:35:42;;;;;;;;;;;23.90;55.40;;;;;;8340386;28;19962;-63
2021/11/08 11:39:43;;;;;;;;;;;23.70;54.60;;;;;;8335240;28;19909;-63
2021/11/08 11:43:46;;;;;;;;;;;23.60;54.40;;;;;;8361152;28;19911;-65
2021/11/08 11:48:04;;;;;;;;;;;25.20;54.20;;;;;;8359812;28;19955;-63
2021/11/08 11:52:04;;;;;;;;;;;25.10;51.70;;;;;;8358585;28;20003;-63
2021/11/08 11:56:05;;;;;;;;;;;26.30;52.00;;;;;;8361268;28;19974;-64
2021/11/08 12:00:06;;;;;;;;;;;28.20;49.30;;;;;;8361089;28;19905;-64
2021/11/08 12:04:07;;;;;;;;;;;30.60;43.40;;;;;;8357909;28;19913;-64
2021/11/08 12:08:08;;;;;;;;;;;29.10;42.80;;;;;;8359226;28;19966;-64
2021/11/08 12:12:09;;;;;;;;;;;30.10;42.00;;;;;;8357332;28;19916;-64
2021/11/08 12:16:14;;;;;;;;;;;29.30;42.00;;;;;;8357992;28;19948;-64
2021/11/08 12:20:16;;;;;;;;;;;29.90;38.90;;;;;;8357394;28;19919;-64
2021/11/08 12:24:21;;;;;;;;;;;28.30;43.40;;;;;;8339943;28;19909;-63
2021/11/08 12:28:23;;;;;;;;;;;27.30;43.30;;;;;;8360445;28;19905;-64
2021/11/08 12:32:24;;;;;;;;;;;26.50;45.00;;;;;;8360448;28;19904;-64
2021/11/08 12:36:25;;;;;;;;;;;26.40;45.30;;;;;;8337477;28;19912;-63
2021/11/08 12:40:30;;;;;;;;;;;24.20;48.60;;;;;;8351142;28;20365;-63
2021/11/08 12:44:32;;;;;;;;;;;23.20;46.30;;;;;;8360567;28;19912;-63
2021/11/08 12:48:33;;;;;;;;;;;22.00;52.60;;;;;;8362794;28;19931;-63
2021/11/08 12:52:38;;;;;;;;;;;20.10;55.70;;;;;;8366623;28;19911;-63
2021/11/08 12:56:42;;;;;;;;;;;21.70;52.10;;;;;;8348800;28;20300;-63
2021/11/08 13:00:49;;;;;;;;;;;19.10;55.90;;;;;;8366544;28;19905;-63
2021/11/08 13:04:50;;;;;;;;;;;17.10;63.40;;;;;;8348435;28;19913;-63
2021/11/08 13:09:01;;;;;;;;;;;20.10;59.40;;;;;;8346224;28;19959;-63
2021/11/08 13:13:03;;;;;;;;;;;22.20;52.90;;;;;;8364575;28;19916;-63
2021/11/08 13:17:04;;;;;;;;;;;21.30;52.50;;;;;;8365509;28;19908;-63
2021/11/08 13:21:05;;;;;;;;;;;18.90;58.10;;;;;;8348095;28;20622;-63
2021/11/08 13:25:11;;;;;;;;;;;17.10;61.50;;;;;;8347803;28;19909;-63
2021/11/08 13:29:22;;;;;;;;;;;18.70;61.10;;;;;;8365304;28;20384;-64
2021/11/08 13:33:27;;;;;;;;;;;22.10;53.20;;;;;;8365007;28;19936;-64
2021/11/08 13:37:35;;;;;;;;;;;23.40;50.20;;;;;;8364963;28;19916;-64
2021/11/08 13:41:36;;;;;;;;;;;21.80;51.70;;;;;;8362081;28;19913;-63
2021/11/08 13:45:47;;;;;;;;;;;19.60;56.30;;;;;;8365018;28;19909;-64
2021/11/08 13:49:48;;;;;;;;;;;18.10;59.50;;;;;;8364570;28;20403;-63
2021/11/08 13:53:52;;;;;;;;;;;16.20;63.60;;;;;;8365011;28;19905;-63
2021/11/08 13:57:53;;;;;;;;;;;14.40;70.40;;;;;;8344890;28;19913;-63
2021/11/08 14:02:06;;;;;;;;;;;12.90;74.30;;;;;;8362613;28;20053;-63
2021/11/08 14:06:07;;;;;;;;;;;12.30;76.90;;;;;;8364318;28;19912;-63
2021/11/08 14:10:10;;;;;;;;;;;12.00;78.00;;;;;;8364029;28;19909;-63
2021/11/08 14:14:11;;;;;;;;;;;11.80;82.00;;;;;;8350283;28;20331;-63
2021/11/08 14:18:18;;;;;;;;;;;11.50;84.20;;;;;;8331446;28;19909;-63
2021/11/08 14:22:22;;;;;;;;;;;11.30;86.70;;;;;;8334573;28;19909;-63
2021/11/08 14:26:24;;;;;;;;;;;11.00;88.80;;;;;;8364003;28;19905;-63
2021/11/08 14:30:26;;;;;;;;;;;10.80;91.40;;;;;;8363256;28;20039;-63
2021/11/08 14:34:31;;;;;;;;;;;10.40;91.00;;;;;;8363651;28;20003;-63
2021/11/08 14:38:37;;;;;;;;;;;10.20;92.80;;;;;;8362257;28;19924;-63
2021/11/08 14:42:38;;;;;;;;;;;10.00;92.70;;;;;;8363594;28;19985;-63
2021/11/08 14:46:40;;;;;;;;;;;9.80;93.80;;;;;;8361119;28;19909;-63
2021/11/08 14:50:41;;;;;;;;;;;9.50;95.20;;;;;;8362854;28;19982;-62
2021/11/08 14:54:50;;;;;;;;;;;9.40;96.60;;;;;;8344892;28;19909;-63
2021/11/08 14:58:57;;;;;;;;;;;9.30;97.00;;;;;;8361700;28;19913;-63
2021/11/08 15:03:08;;;;;;;;;;;9.00;98.60;;;;;;8360157;28;19919;-62
2021/11/08 15:07:09;;;;;;;;;;;8.70;99.90;;;;;;8344381;28;20046;-63
2021/11/08 15:11:09;;;;;;;;;;;8.50;99.90;;;;;;8342450;28;19908;-63
2021/11/08 15:15:14;;;;;;;;;;;8.20;99.90;;;;;;8361086;28;19909;-63
2021/11/08 15:19:15;;;;;;;;;;;8.20;99.90;;;;;;8342103;28;20004;-63
2021/11/08 15:23:18;;;;;;;;;;;8.30;99.90;;;;;;8360790;28;20033;-62
2021/11/08 15:27:26;;;;;;;;;;;8.20;99.90;;;;;;8361068;28;19908;-62
2021/11/08 15:31:29;;;;;;;;;;;8.10;99.90;;;;;;8361197;28;19915;-62
2021/11/08 15:35:36;;;;;;;;;;;7.70;99.90;;;;;;8360925;28;20485;-62
2021/11/08 15:39:36;;;;;;;;;;;7.50;99.90;;;;;;8359551;28;19912;-62
2021/11/08 15:43:37;;;;;;;;;;;7.60;99.90;;;;;;8359603;28;19931;-62
2021/11/08 15:47:37;;;;;;;;;;;7.10;99.90;;;;;;8361141;28;20391;-62
2021/11/08 15:51:41;;;;;;;;;;;7.00;99.90;;;;;;8359792;28;19999;-62
2021/11/08 15:55:42;;;;;;;;;;;6.60;99.90;;;;;;8360548;28;19909;-62
2021/11/08 15:59:43;;;;;;;;;;;6.40;99.90;;;;;;8358878;28;19912;-61
2021/11/08 16:03:43;;;;;;;;;;;6.30;99.90;;;;;;8360116;28;20465;-62
2021/11/08 16:07:45;;;;;;;;;;;6.10;99.90;;;;;;8350426;28;19963;-62
2021/11/08 16:11:46;;;;;;;;;;;5.90;99.90;;;;;;8336601;28;19920;-63
2021/11/08 16:15:49;;;;;;;;;;;5.70;99.90;;;;;;8354405;28;19962;-63
2021/11/08 16:19:49;;;;;;;;;;;5.60;99.90;;;;;;8356456;28;20320;-63
2021/11/08 16:23:50;;;;;;;;;;;5.30;99.90;;;;;;8355232;28;19904;-63
2021/11/08 16:27:50;;;;;;;;;;;5.10;99.90;;;;;;8359068;28;19911;-62
2021/11/08 16:31:54;;;;;;;;;;;5.00;99.90;;;;;;8355000;28;19975;-63
2021/11/08 16:35:55;;;;;;;;;;;4.80;99.90;;;;;;8359260;28;19904;-62
2021/11/08 16:39:55;;;;;;;;;;;5.10;99.90;;;;;;8358682;28;20391;-62
2021/11/08 16:43:56;;;;;;;;;;;4.80;99.90;;;;;;8359001;28;20364;-62
2021/11/08 16:47:58;;;;;;;;;;;4.60;99.90;;;;;;8358985;28;19912;-62
2021/11/08 16:51:58;;;;;;;;;;;4.50;99.90;;;;;;8359336;28;19905;-63
2021/11/08 16:55:59;;;;;;;;;;;4.60;99.90;;;;;;8353476;28;20735;-63
2021/11/08 16:59:59;;;;;;;;;;;4.50;99.90;;;;;;8350526;28;19944;-63
2021/11/08 17:04:00;;;;;;;;;;;4.40;99.90;;;;;;8346035;28;19923;-63
2021/11/08 17:08:02;;;;;;;;;;;4.40;99.90;;;;;;8352145;28;19930;-65
2021/11/08 17:16:22;;;;;;;;;;;4.20;99.90;;;;;;8341787;28;19919;-65
2021/11/08 17:20:23;;;;;;;;;;;4.20;99.90;;;;;;8342472;28;19913;-64
2021/11/08 17:24:23;;;;;;;;;;;4.10;99.90;;;;;;8338914;28;19909;-64
2021/11/08 17:28:24;;;;;;;;;;;3.80;99.90;;;;;;8340697;28;20416;-65
2021/11/08 17:32:26;;;;;;;;;;;3.50;99.90;;;;;;8319252;28;20383;-65
2021/11/08 17:36:27;;;;;;;;;;;3.50;99.90;;;;;;8348406;28;20438;-65
2021/11/08 17:40:27;;;;;;;;;;;3.50;99.90;;;;;;8358168;28;19955;-65
2021/11/08 17:44:28;;;;;;;;;;;3.50;99.90;;;;;;8364497;28;20356;-65
2021/11/08 17:48:28;;;;;;;;;;;3.50;99.90;;;;;;8347370;28;19905;-64
2021/11/08 17:52:30;;;;;;;;;;;3.30;99.90;;;;;;8363857;28;19904;-65
2021/11/08 17:56:30;;;;;;;;;;;3.20;99.90;;;;;;8346331;28;19913;-64
2021/11/08 18:00:31;;;;;;;;;;;3.10;99.90;;;;;;8330343;28;20361;-65
2021/11/08 18:04:32;;;;;;;;;;;3.00;99.90;;;;;;8355626;28;19935;-65
2021/11/08 18:08:33;;;;;;;;;;;2.90;99.90;;;;;;8351019;28;19908;-65
2021/11/08 18:12:34;;;;;;;;;;;2.90;99.90;;;;;;8354115;28;19913;-65
2021/11/08 18:16:35;;;;;;;;;;;2.90;99.90;;;;;;8349680;28;19964;-65
2021/11/08 18:20:46;;;;;;;;;;;2.80;99.90;;;;;;8345660;28;19939;-65
2021/11/08 18:29:06;;;;;;;;;;;2.50;99.90;;;;;;8336668;28;20178;-65
2021/11/08 18:33:07;;;;;;;;;;;2.60;99.90;;;;;;8345370;28;20422;-65
2021/11/08 18:37:09;;;;;;;;;;;2.60;99.90;;;;;;8346737;28;19921;-65
2021/11/08 18:41:11;;;;;;;;;;;2.50;99.90;;;;;;8335238;28;20284;-65
2021/11/08 18:45:12;;;;;;;;;;;2.60;99.90;;;;;;8310379;28;20016;-65
2021/11/08 18:49:12;;;;;;;;;;;2.20;99.90;;;;;;8327908;28;19909;-66
2021/11/08 18:53:13;;;;;;;;;;;2.10;99.90;;;;;;8340280;28;20426;-65
2021/11/08 18:57:19;;;;;;;;;;;2.30;99.90;;;;;;8330070;28;19913;-65
2021/11/08 19:01:24;;;;;;;;;;;2.30;99.90;;;;;;8354942;28;20323;-65
2021/11/08 19:05:35;;;;;;;;;;;2.20;99.90;;;;;;8340331;28;19913;-65
2021/11/08 19:09:36;;;;;;;;;;;2.10;99.90;;;;;;8330858;28;20043;-65
2021/11/08 19:13:37;;;;;;;;;;;2.00;99.90;;;;;;8340572;28;19913;-66
2021/11/08 19:17:38;;;;;;;;;;;1.60;99.90;;;;;;8348015;28;21017;-65
2021/11/08 19:21:39;;;;;;;;;;;1.70;99.90;;;;;;8331530;28;20244;-65
2021/11/08 19:25:40;;;;;;;;;;;1.50;99.90;;;;;;8342365;28;19953;-65
2021/11/08 19:33:48;;;;;;;;;;;1.60;99.90;;;;;;8329179;28;19913;-65
2021/11/08 19:38:07;;;;;;;;;;;1.50;99.90;;;;;;8347375;28;19984;-64
2021/11/08 19:42:08;;;;;;;;;;;1.50;99.90;;;;;;8352361;28;19923;-64
2021/11/08 19:46:08;;;;;;;;;;;1.70;99.90;;;;;;8352551;28;19940;-64
2021/11/08 19:50:09;;;;;;;;;;;1.50;99.90;;;;;;8335585;28;19987;-64
2021/11/08 19:54:11;;;;;;;;;;;1.50;99.90;;;;;;8340162;28;20369;-64
2021/11/08 19:58:12;;;;;;;;;;;1.40;99.90;;;;;;8344951;28;19917;-64
2021/11/08 20:02:13;;;;;;;;;;;1.40;99.90;;;;;;8342283;28;19912;-64
2021/11/08 20:06:13;;;;;;;;;;;1.50;99.90;;;;;;8352709;28;19912;-64
2021/11/08 20:10:15;;;;;;;;;;;1.40;99.90;;;;;;8349930;28;19921;-64
2021/11/08 20:14:51;;;;;;;;;;;1.30;99.90;;;;;;8353354;28;20276;-64
2021/11/08 20:18:43;;;;;;;;;;;1.30;99.90;;;;;;8348564;28;20686;-64
2021/11/08 20:22:44;;;;;;;;;;;1.20;99.90;;;;;;8354629;28;19912;-65
2021/11/08 20:26:45;;;;;;;;;;;1.20;99.90;;;;;;8337618;28;19958;-64
2021/11/08 20:30:52;;;;;;;;;;;1.00;99.90;;;;;;8352468;28;19923;-64
2021/11/08 20:52:09;;;;;;;;;;;0.70;99.90;;;;;;8354407;28;19915;-65
2021/11/08 20:56:37;;;;;;;;;;;0.50;99.90;;;;;;8335667;28;20530;-64
2021/11/08 21:00:39;;;;;;;;;;;0.40;99.90;;;;;;8327942;28;19916;-64
2021/11/08 21:04:46;;;;;;;;;;;0.50;99.90;;;;;;8336558;28;19913;-64
2021/11/08 21:17:26;;;;;;;;;;;0.30;99.90;;;;;;8358595;28;20129;-64
2021/11/08 21:21:28;;;;;;;;;;;0.30;99.90;;;;;;8361028;28;19915;-64
2021/11/08 21:25:30;;;;;;;;;;;0.50;99.90;;;;;;8361824;28;19909;-64
2021/11/08 21:29:38;;;;;;;;;;;0.40;99.90;;;;;;8360679;28;19909;-64
2021/11/08 21:38:03;;;;;;;;;;;0.60;99.90;;;;;;8335178;28;19966;-64
2021/11/08 21:38:17;;;;;;;;;;;0.50;99.90;;;;;;8331690;28;19920;-65
2021/11/08 21:42:18;;;;;;;;;;;0.30;99.90;;;;;;8311064;28;20361;-64
2021/11/08 21:46:18;;;;;;;;;;;0.40;99.90;;;;;;8318828;28;19909;-64
2021/11/08 21:50:19;;;;;;;;;;;0.20;99.90;;;;;;8363339;28;20038;-64
2021/11/08 21:54:19;;;;;;;;;;;0.20;99.90;;;;;;8365161;28;20358;-64
2021/11/08 21:58:20;;;;;;;;;;;-0.10;99.90;;;;;;8347154;28;19916;-64
2021/11/08 22:02:20;;;;;;;;;;;0.00;99.90;;;;;;8364407;28;20361;-64
2021/11/08 22:06:21;;;;;;;;;;;0.00;99.90;;;;;;8365154;28;19905;-64
2021/11/08 22:10:22;;;;;;;;;;;-0.20;99.90;;;;;;8364515;28;19911;-64
2021/11/08 22:14:22;;;;;;;;;;;-0.10;99.90;;;;;;8364743;28;19955;-64
2021/11/08 22:18:23;;;;;;;;;;;-0.10;99.90;;;;;;8364367;28;19916;-64
2021/11/08 22:22:23;;;;;;;;;;;-0.20;99.90;;;;;;8363348;28;19904;-64
2021/11/08 22:26:24;;;;;;;;;;;-0.30;99.90;;;;;;8364402;28;19904;-64
2021/11/08 22:30:25;;;;;;;;;;;-0.30;99.90;;;;;;8364068;28;19948;-64
2021/11/08 22:34:26;;;;;;;;;;;-0.50;99.90;;;;;;8364027;28;19931;-64
2021/11/08 22:38:27;;;;;;;;;;;-0.60;99.90;;;;;;8345734;28;19999;-64
2021/11/08 22:42:27;;;;;;;;;;;-0.50;99.90;;;;;;8345799;28;19927;-65
2021/11/08 22:46:28;;;;;;;;;;;-0.40;99.90;;;;;;8363903;28;19905;-64
2021/11/08 22:50:28;;;;;;;;;;;-0.40;99.90;;;;;;8363274;28;20008;-64
2021/11/08 22:54:29;;;;;;;;;;;-0.60;99.90;;;;;;8363261;28;19911;-64
2021/11/08 22:58:29;;;;;;;;;;;-0.80;99.90;;;;;;8362980;28;20041;-65
2021/11/08 23:02:30;;;;;;;;;;;-0.60;99.90;;;;;;8362831;28;19912;-64
2021/11/08 23:06:30;;;;;;;;;;;-0.60;99.90;;;;;;8363017;28;19912;-64
2021/11/08 23:10:31;;;;;;;;;;;-0.70;99.90;;;;;;8362625;28;19909;-65
2021/11/08 23:14:31;;;;;;;;;;;-0.60;99.90;;;;;;8362728;28;19911;-64
2021/11/08 23:18:33;;;;;;;;;;;-0.60;99.90;;;;;;8362436;28;19915;-64
2021/11/08 23:22:33;;;;;;;;;;;-0.60;99.90;;;;;;8344488;28;20368;-64
2021/11/08 23:26:34;;;;;;;;;;;-0.50;99.90;;;;;;8362593;28;19905;-65
2021/11/08 23:30:35;;;;;;;;;;;-0.50;99.90;;;;;;8344241;28;19911;-64
2021/11/08 23:34:35;;;;;;;;;;;-0.70;99.90;;;;;;8343270;28;19909;-64
2021/11/08 23:38:36;;;;;;;;;;;-0.60;99.90;;;;;;8361739;28;19913;-65
2021/11/08 23:42:38;;;;;;;;;;;-0.70;99.90;;;;;;8343962;28;19904;-64
2021/11/08 23:46:38;;;;;;;;;;;-0.60;99.90;;;;;;8361985;28;20377;-64
2021/11/08 23:50:39;;;;;;;;;;;-0.80;99.90;;;;;;8360741;28;19908;-65
2021/11/08 23:54:39;;;;;;;;;;;-0.90;99.90;;;;;;8361598;28;19995;-64
2021/11/08 23:58:40;;;;;;;;;;;-1.00;99.90;;;;;;8343060;28;20220;-64
